<?xml version="1.0" encoding="UTF-8" standalone="no" ?>
<gpx xmlns="http://www.topografix.com/GPX/1/1" xmlns:xsi="http://www.w3.org/2001/XMLSchema-instance" xsi:schemaLocation="http://www.topografix.com/GPX/1/1 http://www.topografix.com/GPX/1/1/gpx.xsd" version="1.1" creator="VisuGPX - https://www.visugpx.com">
  <metadata>
    <name>LePouliguen_LeCroisic_10-20km</name>
    <desc><![CDATA[gnerando idor:14387918_14388012_14411987_14458844_14458865]]></desc>
  </metadata>
  <trk>
    <name><![CDATA[LePouliguen_LeCroisicGranitsCentreMarais_19km-14458865]]></name>
    <extensions>
      <line xmlns="http://www.topografix.com/GPX/gpx_style/0/2">
        <color>ff8040</color>
        <width>4</width>
      </line>
    </extensions>
    <trkseg>
      <trkpt lat="47.28256" lon="-2.43381">
        <ele>2</ele>
        <time>2023-11-04T19:23:53Z</time>
      </trkpt>
      <trkpt lat="47.28194" lon="-2.43294">
        <ele>3</ele>
        <time>2023-11-04T19:25:47Z</time>
      </trkpt>
      <trkpt lat="47.27985" lon="-2.43651">
        <ele>2.7</ele>
        <time>2023-11-04T19:32:54Z</time>
      </trkpt>
      <trkpt lat="47.27799" lon="-2.43825">
        <ele>1</ele>
        <time>2023-11-04T19:37:48Z</time>
      </trkpt>
      <trkpt lat="47.27706" lon="-2.44075">
        <ele>2</ele>
        <time>2023-11-04T19:42:06Z</time>
      </trkpt>
      <trkpt lat="47.27541" lon="-2.44054">
        <ele>3</ele>
        <time>2023-11-04T19:45:47Z</time>
      </trkpt>
      <trkpt lat="47.27418" lon="-2.44157">
        <ele>4</ele>
        <time>2023-11-04T19:48:56Z</time>
      </trkpt>
      <trkpt lat="47.2745" lon="-2.4454">
        <ele>2</ele>
        <time>2023-11-04T19:54:45Z</time>
      </trkpt>
      <trkpt lat="47.27538" lon="-2.44807">
        <ele>3</ele>
        <time>2023-11-04T19:59:14Z</time>
      </trkpt>
      <trkpt lat="47.27503" lon="-2.44848">
        <ele>3</ele>
        <time>2023-11-04T20:00:14Z</time>
      </trkpt>
      <trkpt lat="47.27496" lon="-2.44873">
        <ele>3</ele>
        <time>2023-11-04T20:00:38Z</time>
      </trkpt>
      <trkpt lat="47.2768" lon="-2.45665">
        <ele>8</ele>
        <time>2023-11-04T20:13:16Z</time>
      </trkpt>
      <trkpt lat="47.27623" lon="-2.45699">
        <ele>7</ele>
        <time>2023-11-04T20:14:38Z</time>
      </trkpt>
      <trkpt lat="47.27671" lon="-2.46272">
        <ele>7</ele>
        <time>2023-11-04T20:23:21Z</time>
      </trkpt>
      <trkpt lat="47.27265" lon="-2.46579">
        <ele>9</ele>
        <time>2023-11-04T20:33:30Z</time>
      </trkpt>
      <trkpt lat="47.27121" lon="-2.46817">
        <ele>13</ele>
        <time>2023-11-04T20:38:19Z</time>
      </trkpt>
      <trkpt lat="47.27115" lon="-2.47055">
        <ele>15</ele>
        <time>2023-11-04T20:41:54Z</time>
      </trkpt>
      <trkpt lat="47.27312" lon="-2.4703">
        <ele>15</ele>
        <time>2023-11-04T20:46:18Z</time>
      </trkpt>
      <trkpt lat="47.27432" lon="-2.46967">
        <ele>13</ele>
        <time>2023-11-04T20:49:08Z</time>
      </trkpt>
      <trkpt lat="47.27505" lon="-2.47191">
        <ele>10</ele>
        <time>2023-11-04T20:52:53Z</time>
      </trkpt>
      <trkpt lat="47.27313" lon="-2.47317">
        <ele>13</ele>
        <time>2023-11-04T20:57:34Z</time>
      </trkpt>
      <trkpt lat="47.2729" lon="-2.47383">
        <ele>13</ele>
        <time>2023-11-04T20:58:41Z</time>
      </trkpt>
      <trkpt lat="47.27271" lon="-2.47414">
        <ele>13</ele>
        <time>2023-11-04T20:59:19Z</time>
      </trkpt>
      <trkpt lat="47.27274" lon="-2.47485">
        <ele>12</ele>
        <time>2023-11-04T21:00:23Z</time>
      </trkpt>
      <trkpt lat="47.27307" lon="-2.47582">
        <ele>12</ele>
        <time>2023-11-04T21:02:01Z</time>
      </trkpt>
      <trkpt lat="47.27333" lon="-2.47619">
        <ele>11</ele>
        <time>2023-11-04T21:02:50Z</time>
      </trkpt>
      <trkpt lat="47.274" lon="-2.47675">
        <ele>8</ele>
        <time>2023-11-04T21:04:32Z</time>
      </trkpt>
      <trkpt lat="47.27437" lon="-2.47663">
        <ele>8</ele>
        <time>2023-11-04T21:05:23Z</time>
      </trkpt>
      <trkpt lat="47.27438" lon="-2.47752">
        <ele>7</ele>
        <time>2023-11-04T21:06:44Z</time>
      </trkpt>
      <trkpt lat="47.27471" lon="-2.47814">
        <ele>7</ele>
        <time>2023-11-04T21:07:55Z</time>
      </trkpt>
      <trkpt lat="47.27543" lon="-2.47741">
        <ele>9</ele>
        <time>2023-11-04T21:09:51Z</time>
      </trkpt>
      <trkpt lat="47.27622" lon="-2.47715">
        <ele>11</ele>
        <time>2023-11-04T21:11:40Z</time>
      </trkpt>
      <trkpt lat="47.27672" lon="-2.47963">
        <ele>17</ele>
        <time>2023-11-04T21:15:34Z</time>
      </trkpt>
      <trkpt lat="47.27696" lon="-2.48072">
        <ele>18</ele>
        <time>2023-11-04T21:17:18Z</time>
      </trkpt>
      <trkpt lat="47.28064" lon="-2.4793">
        <ele>6</ele>
        <time>2023-11-04T21:25:45Z</time>
      </trkpt>
      <trkpt lat="47.28138" lon="-2.48364">
        <ele>7</ele>
        <time>2023-11-04T21:32:30Z</time>
      </trkpt>
      <trkpt lat="47.28233" lon="-2.48348">
        <ele>5</ele>
        <time>2023-11-04T21:34:38Z</time>
      </trkpt>
      <trkpt lat="47.28262" lon="-2.48375">
        <ele>4</ele>
        <time>2023-11-04T21:35:24Z</time>
      </trkpt>
      <trkpt lat="47.28285" lon="-2.48361">
        <ele>3</ele>
        <time>2023-11-04T21:35:57Z</time>
      </trkpt>
      <trkpt lat="47.28278" lon="-2.48276">
        <ele>3</ele>
        <time>2023-11-04T21:37:14Z</time>
      </trkpt>
      <trkpt lat="47.28383" lon="-2.48216">
        <ele>1</ele>
        <time>2023-11-04T21:39:45Z</time>
      </trkpt>
      <trkpt lat="47.28427" lon="-2.48226">
        <ele>2.9</ele>
        <time>2023-11-04T21:40:44Z</time>
      </trkpt>
      <trkpt lat="47.28451" lon="-2.48185">
        <ele>2.8</ele>
        <time>2023-11-04T21:41:33Z</time>
      </trkpt>
      <trkpt lat="47.28511" lon="-2.48181">
        <ele>1.7</ele>
        <time>2023-11-04T21:42:53Z</time>
      </trkpt>
      <trkpt lat="47.28542" lon="-2.48229">
        <ele>1.5</ele>
        <time>2023-11-04T21:43:53Z</time>
      </trkpt>
      <trkpt lat="47.28564" lon="-2.48305">
        <ele>2</ele>
        <time>2023-11-04T21:45:08Z</time>
      </trkpt>
      <trkpt lat="47.28489" lon="-2.48311">
        <ele>2</ele>
        <time>2023-11-04T21:46:48Z</time>
      </trkpt>
      <trkpt lat="47.28478" lon="-2.48375">
        <ele>2</ele>
        <time>2023-11-04T21:47:48Z</time>
      </trkpt>
      <trkpt lat="47.28445" lon="-2.48398">
        <ele>1</ele>
        <time>2023-11-04T21:48:37Z</time>
      </trkpt>
      <trkpt lat="47.28434" lon="-2.48532">
        <ele>2</ele>
        <time>2023-11-04T21:50:39Z</time>
      </trkpt>
      <trkpt lat="47.28468" lon="-2.48564">
        <ele>1</ele>
        <time>2023-11-04T21:51:33Z</time>
      </trkpt>
      <trkpt lat="47.28477" lon="-2.48607">
        <ele>1.9</ele>
        <time>2023-11-04T21:52:13Z</time>
      </trkpt>
      <trkpt lat="47.28525" lon="-2.48574">
        <ele>1.4</ele>
        <time>2023-11-04T21:53:24Z</time>
      </trkpt>
      <trkpt lat="47.28566" lon="-2.48515">
        <ele>1.8</ele>
        <time>2023-11-04T21:54:41Z</time>
      </trkpt>
      <trkpt lat="47.28597" lon="-2.48495">
        <ele>2.1</ele>
        <time>2023-11-04T21:55:26Z</time>
      </trkpt>
      <trkpt lat="47.28626" lon="-2.48502">
        <ele>2.5</ele>
        <time>2023-11-04T21:56:05Z</time>
      </trkpt>
      <trkpt lat="47.28666" lon="-2.48659">
        <ele>2.2</ele>
        <time>2023-11-04T21:58:37Z</time>
      </trkpt>
      <trkpt lat="47.28548" lon="-2.48794">
        <ele>2.4</ele>
        <time>2023-11-04T22:01:56Z</time>
      </trkpt>
      <trkpt lat="47.28572" lon="-2.48817">
        <ele>2.4</ele>
        <time>2023-11-04T22:02:34Z</time>
      </trkpt>
      <trkpt lat="47.28582" lon="-2.48854">
        <ele>2</ele>
        <time>2023-11-04T22:03:10Z</time>
      </trkpt>
      <trkpt lat="47.28569" lon="-2.48911">
        <ele>2.4</ele>
        <time>2023-11-04T22:04:05Z</time>
      </trkpt>
      <trkpt lat="47.28526" lon="-2.48927">
        <ele>2</ele>
        <time>2023-11-04T22:05:04Z</time>
      </trkpt>
      <trkpt lat="47.28474" lon="-2.48917">
        <ele>2</ele>
        <time>2023-11-04T22:06:14Z</time>
      </trkpt>
      <trkpt lat="47.28458" lon="-2.48961">
        <ele>2.6</ele>
        <time>2023-11-04T22:06:59Z</time>
      </trkpt>
      <trkpt lat="47.2849" lon="-2.48985">
        <ele>2.4</ele>
        <time>2023-11-04T22:07:47Z</time>
      </trkpt>
      <trkpt lat="47.28577" lon="-2.48973">
        <ele>2</ele>
        <time>2023-11-04T22:09:44Z</time>
      </trkpt>
      <trkpt lat="47.28598" lon="-2.49021">
        <ele>2</ele>
        <time>2023-11-04T22:10:35Z</time>
      </trkpt>
      <trkpt lat="47.28595" lon="-2.49081">
        <ele>1</ele>
        <time>2023-11-04T22:11:30Z</time>
      </trkpt>
      <trkpt lat="47.28611" lon="-2.49161">
        <ele>2</ele>
        <time>2023-11-04T22:12:45Z</time>
      </trkpt>
      <trkpt lat="47.28635" lon="-2.4932">
        <ele>1.9</ele>
        <time>2023-11-04T22:15:13Z</time>
      </trkpt>
      <trkpt lat="47.28633" lon="-2.49628">
        <ele>1.4</ele>
        <time>2023-11-04T22:19:52Z</time>
      </trkpt>
      <trkpt lat="47.28526" lon="-2.4968">
        <ele>1.1</ele>
        <time>2023-11-04T22:22:22Z</time>
      </trkpt>
      <trkpt lat="47.28519" lon="-2.49724">
        <ele>2</ele>
        <time>2023-11-04T22:23:03Z</time>
      </trkpt>
      <trkpt lat="47.28414" lon="-2.49733">
        <ele>2.6</ele>
        <time>2023-11-04T22:25:23Z</time>
      </trkpt>
      <trkpt lat="47.28346" lon="-2.49777">
        <ele>1</ele>
        <time>2023-11-04T22:27:02Z</time>
      </trkpt>
      <trkpt lat="47.28343" lon="-2.49826">
        <ele>2</ele>
        <time>2023-11-04T22:27:47Z</time>
      </trkpt>
      <trkpt lat="47.28387" lon="-2.49844">
        <ele>1</ele>
        <time>2023-11-04T22:28:48Z</time>
      </trkpt>
      <trkpt lat="47.28416" lon="-2.49917">
        <ele>1</ele>
        <time>2023-11-04T22:30:04Z</time>
      </trkpt>
      <trkpt lat="47.28475" lon="-2.49894">
        <ele>2</ele>
        <time>2023-11-04T22:31:26Z</time>
      </trkpt>
      <trkpt lat="47.28523" lon="-2.49891">
        <ele>2.1</ele>
        <time>2023-11-04T22:32:30Z</time>
      </trkpt>
      <trkpt lat="47.28558" lon="-2.50155">
        <ele>1.9</ele>
        <time>2023-11-04T22:36:33Z</time>
      </trkpt>
      <trkpt lat="47.28535" lon="-2.50172">
        <ele>1.8</ele>
        <time>2023-11-04T22:37:08Z</time>
      </trkpt>
      <trkpt lat="47.28504" lon="-2.50158">
        <ele>2.6</ele>
        <time>2023-11-04T22:37:51Z</time>
      </trkpt>
      <trkpt lat="47.28493" lon="-2.50231">
        <ele>2</ele>
        <time>2023-11-04T22:38:59Z</time>
      </trkpt>
      <trkpt lat="47.28396" lon="-2.50279">
        <ele>2</ele>
        <time>2023-11-04T22:41:15Z</time>
      </trkpt>
      <trkpt lat="47.28385" lon="-2.50335">
        <ele>3</ele>
        <time>2023-11-04T22:42:08Z</time>
      </trkpt>
      <trkpt lat="47.28341" lon="-2.50319">
        <ele>4</ele>
        <time>2023-11-04T22:43:09Z</time>
      </trkpt>
      <trkpt lat="47.28277" lon="-2.50254">
        <ele>3</ele>
        <time>2023-11-04T22:44:52Z</time>
      </trkpt>
      <trkpt lat="47.28262" lon="-2.50265">
        <ele>3</ele>
        <time>2023-11-04T22:45:15Z</time>
      </trkpt>
      <trkpt lat="47.28227" lon="-2.50224">
        <ele>5</ele>
        <time>2023-11-04T22:46:14Z</time>
      </trkpt>
      <trkpt lat="47.28199" lon="-2.50245">
        <ele>7</ele>
        <time>2023-11-04T22:46:56Z</time>
      </trkpt>
      <trkpt lat="47.28184" lon="-2.50305">
        <ele>6</ele>
        <time>2023-11-04T22:47:54Z</time>
      </trkpt>
      <trkpt lat="47.28186" lon="-2.50327">
        <ele>5</ele>
        <time>2023-11-04T22:48:14Z</time>
      </trkpt>
      <trkpt lat="47.28102" lon="-2.50411">
        <ele>5</ele>
        <time>2023-11-04T22:50:30Z</time>
      </trkpt>
      <trkpt lat="47.28041" lon="-2.50408">
        <ele>3</ele>
        <time>2023-11-04T22:51:51Z</time>
      </trkpt>
      <trkpt lat="47.28038" lon="-2.5053">
        <ele>3</ele>
        <time>2023-11-04T22:53:42Z</time>
      </trkpt>
      <trkpt lat="47.28067" lon="-2.50561">
        <ele>3</ele>
        <time>2023-11-04T22:54:29Z</time>
      </trkpt>
      <trkpt lat="47.28091" lon="-2.50569">
        <ele>4</ele>
        <time>2023-11-04T22:55:02Z</time>
      </trkpt>
      <trkpt lat="47.28127" lon="-2.50602">
        <ele>4</ele>
        <time>2023-11-04T22:55:59Z</time>
      </trkpt>
      <trkpt lat="47.28143" lon="-2.50596">
        <ele>5</ele>
        <time>2023-11-04T22:56:21Z</time>
      </trkpt>
      <trkpt lat="47.28173" lon="-2.50634">
        <ele>5</ele>
        <time>2023-11-04T22:57:14Z</time>
      </trkpt>
      <trkpt lat="47.28186" lon="-2.50721">
        <ele>4</ele>
        <time>2023-11-04T22:58:34Z</time>
      </trkpt>
      <trkpt lat="47.28239" lon="-2.50974">
        <ele>4</ele>
        <time>2023-11-04T23:02:34Z</time>
      </trkpt>
      <trkpt lat="47.28232" lon="-2.51044">
        <ele>4</ele>
        <time>2023-11-04T23:03:38Z</time>
      </trkpt>
      <trkpt lat="47.28264" lon="-2.5109">
        <ele>5</ele>
        <time>2023-11-04T23:04:38Z</time>
      </trkpt>
      <trkpt lat="47.28296" lon="-2.51186">
        <ele>3</ele>
        <time>2023-11-04T23:06:14Z</time>
      </trkpt>
      <trkpt lat="47.28408" lon="-2.51271">
        <ele>6</ele>
        <time>2023-11-04T23:09:03Z</time>
      </trkpt>
      <trkpt lat="47.2844" lon="-2.51397">
        <ele>6</ele>
        <time>2023-11-04T23:11:04Z</time>
      </trkpt>
      <trkpt lat="47.2852" lon="-2.51515">
        <ele>6</ele>
        <time>2023-11-04T23:13:35Z</time>
      </trkpt>
      <trkpt lat="47.2855" lon="-2.51777">
        <ele>6</ele>
        <time>2023-11-04T23:17:36Z</time>
      </trkpt>
      <trkpt lat="47.28615" lon="-2.5186">
        <ele>8</ele>
        <time>2023-11-04T23:19:31Z</time>
      </trkpt>
      <trkpt lat="47.28622" lon="-2.51911">
        <ele>6</ele>
        <time>2023-11-04T23:20:18Z</time>
      </trkpt>
      <trkpt lat="47.2861" lon="-2.51961">
        <ele>5</ele>
        <time>2023-11-04T23:21:06Z</time>
      </trkpt>
      <trkpt lat="47.28641" lon="-2.52043">
        <ele>8</ele>
        <time>2023-11-04T23:22:31Z</time>
      </trkpt>
      <trkpt lat="47.28632" lon="-2.52064">
        <ele>6</ele>
        <time>2023-11-04T23:22:53Z</time>
      </trkpt>
      <trkpt lat="47.28654" lon="-2.52088">
        <ele>9</ele>
        <time>2023-11-04T23:23:30Z</time>
      </trkpt>
      <trkpt lat="47.28641" lon="-2.52126">
        <ele>7</ele>
        <time>2023-11-04T23:24:08Z</time>
      </trkpt>
      <trkpt lat="47.28654" lon="-2.52152">
        <ele>7</ele>
        <time>2023-11-04T23:24:38Z</time>
      </trkpt>
      <trkpt lat="47.28627" lon="-2.52188">
        <ele>4</ele>
        <time>2023-11-04T23:25:26Z</time>
      </trkpt>
      <trkpt lat="47.28678" lon="-2.52235">
        <ele>6</ele>
        <time>2023-11-04T23:26:46Z</time>
      </trkpt>
      <trkpt lat="47.28701" lon="-2.52217">
        <ele>8</ele>
        <time>2023-11-04T23:27:21Z</time>
      </trkpt>
      <trkpt lat="47.28742" lon="-2.52416">
        <ele>10</ele>
        <time>2023-11-04T23:30:29Z</time>
      </trkpt>
      <trkpt lat="47.28694" lon="-2.52577">
        <ele>5</ele>
        <time>2023-11-04T23:33:09Z</time>
      </trkpt>
      <trkpt lat="47.28718" lon="-2.52674">
        <ele>7</ele>
        <time>2023-11-04T23:34:42Z</time>
      </trkpt>
      <trkpt lat="47.28717" lon="-2.52802">
        <ele>8</ele>
        <time>2023-11-04T23:36:38Z</time>
      </trkpt>
      <trkpt lat="47.28745" lon="-2.52983">
        <ele>11</ele>
        <time>2023-11-04T23:39:26Z</time>
      </trkpt>
      <trkpt lat="47.28751" lon="-2.53151">
        <ele>7</ele>
        <time>2023-11-04T23:41:58Z</time>
      </trkpt>
      <trkpt lat="47.2883" lon="-2.53245">
        <ele>12</ele>
        <time>2023-11-04T23:44:14Z</time>
      </trkpt>
      <trkpt lat="47.2886" lon="-2.53409">
        <ele>10</ele>
        <time>2023-11-04T23:46:47Z</time>
      </trkpt>
      <trkpt lat="47.28859" lon="-2.53522">
        <ele>8</ele>
        <time>2023-11-04T23:48:30Z</time>
      </trkpt>
      <trkpt lat="47.28904" lon="-2.53665">
        <ele>9</ele>
        <time>2023-11-04T23:50:52Z</time>
      </trkpt>
      <trkpt lat="47.28939" lon="-2.53927">
        <ele>5</ele>
        <time>2023-11-04T23:54:54Z</time>
      </trkpt>
      <trkpt lat="47.2906" lon="-2.54342">
        <ele>3</ele>
        <time>2023-11-05T00:01:43Z</time>
      </trkpt>
      <trkpt lat="47.29052" lon="-2.54426">
        <ele>3</ele>
        <time>2023-11-05T00:03:00Z</time>
      </trkpt>
      <trkpt lat="47.29019" lon="-2.54497">
        <ele>3</ele>
        <time>2023-11-05T00:04:18Z</time>
      </trkpt>
      <trkpt lat="47.29041" lon="-2.54557">
        <ele>2</ele>
        <time>2023-11-05T00:05:19Z</time>
      </trkpt>
      <trkpt lat="47.29084" lon="-2.54519">
        <ele>4</ele>
        <time>2023-11-05T00:06:26Z</time>
      </trkpt>
      <trkpt lat="47.29194" lon="-2.54614">
        <ele>5</ele>
        <time>2023-11-05T00:09:16Z</time>
      </trkpt>
      <trkpt lat="47.2925" lon="-2.54711">
        <ele>3</ele>
        <time>2023-11-05T00:11:12Z</time>
      </trkpt>
      <trkpt lat="47.29443" lon="-2.54684">
        <ele>4</ele>
        <time>2023-11-05T00:15:30Z</time>
      </trkpt>
      <trkpt lat="47.29523" lon="-2.5462">
        <ele>4</ele>
        <time>2023-11-05T00:17:32Z</time>
      </trkpt>
      <trkpt lat="47.29645" lon="-2.54578">
        <ele>3</ele>
        <time>2023-11-05T00:20:19Z</time>
      </trkpt>
      <trkpt lat="47.29769" lon="-2.54482">
        <ele>4</ele>
        <time>2023-11-05T00:23:26Z</time>
      </trkpt>
      <trkpt lat="47.29825" lon="-2.54386">
        <ele>3</ele>
        <time>2023-11-05T00:25:21Z</time>
      </trkpt>
      <trkpt lat="47.29865" lon="-2.54336">
        <ele>3</ele>
        <time>2023-11-05T00:26:31Z</time>
      </trkpt>
      <trkpt lat="47.29882" lon="-2.54165">
        <ele>2</ele>
        <time>2023-11-05T00:29:07Z</time>
      </trkpt>
      <trkpt lat="47.29912" lon="-2.54062">
        <ele>2</ele>
        <time>2023-11-05T00:30:48Z</time>
      </trkpt>
      <trkpt lat="47.29959" lon="-2.53974">
        <ele>2</ele>
        <time>2023-11-05T00:32:30Z</time>
      </trkpt>
      <trkpt lat="47.29952" lon="-2.53859">
        <ele>2</ele>
        <time>2023-11-05T00:34:14Z</time>
      </trkpt>
      <trkpt lat="47.2993" lon="-2.53823">
        <ele>3</ele>
        <time>2023-11-05T00:34:58Z</time>
      </trkpt>
      <trkpt lat="47.29907" lon="-2.53692">
        <ele>2</ele>
        <time>2023-11-05T00:37:01Z</time>
      </trkpt>
      <trkpt lat="47.29945" lon="-2.53552">
        <ele>3</ele>
        <time>2023-11-05T00:39:17Z</time>
      </trkpt>
      <trkpt lat="47.30081" lon="-2.53423">
        <ele>2</ele>
        <time>2023-11-05T00:42:53Z</time>
      </trkpt>
      <trkpt lat="47.30049" lon="-2.5326">
        <ele>3</ele>
        <time>2023-11-05T00:45:26Z</time>
      </trkpt>
      <trkpt lat="47.30035" lon="-2.53027">
        <ele>2</ele>
        <time>2023-11-05T00:48:58Z</time>
      </trkpt>
      <trkpt lat="47.30084" lon="-2.52814">
        <ele>4</ele>
        <time>2023-11-05T00:52:22Z</time>
      </trkpt>
      <trkpt lat="47.30092" lon="-2.52667">
        <ele>4</ele>
        <time>2023-11-05T00:54:35Z</time>
      </trkpt>
      <trkpt lat="47.30113" lon="-2.526">
        <ele>3</ele>
        <time>2023-11-05T00:55:42Z</time>
      </trkpt>
      <trkpt lat="47.30118" lon="-2.52482">
        <ele>4</ele>
        <time>2023-11-05T00:57:29Z</time>
      </trkpt>
      <trkpt lat="47.30046" lon="-2.52097">
        <ele>5</ele>
        <time>2023-11-05T01:03:30Z</time>
      </trkpt>
      <trkpt lat="47.30092" lon="-2.5207">
        <ele>3</ele>
        <time>2023-11-05T01:04:36Z</time>
      </trkpt>
      <trkpt lat="47.30007" lon="-2.51892">
        <ele>1</ele>
        <time>2023-11-05T01:07:53Z</time>
      </trkpt>
      <trkpt lat="47.29982" lon="-2.51824">
        <ele>2</ele>
        <time>2023-11-05T01:09:03Z</time>
      </trkpt>
      <trkpt lat="47.30015" lon="-2.51792">
        <time>2023-11-05T01:09:56Z</time>
      </trkpt>
      <trkpt lat="47.29891" lon="-2.51564">
        <ele>2</ele>
        <time>2023-11-05T01:14:21Z</time>
      </trkpt>
      <trkpt lat="47.2986" lon="-2.51464">
        <ele>2</ele>
        <time>2023-11-05T01:16:00Z</time>
      </trkpt>
      <trkpt lat="47.29809" lon="-2.5149">
        <ele>4</ele>
        <time>2023-11-05T01:17:12Z</time>
      </trkpt>
      <trkpt lat="47.29568" lon="-2.51326">
        <ele>6</ele>
        <time>2023-11-05T01:23:06Z</time>
      </trkpt>
      <trkpt lat="47.29373" lon="-2.50938">
        <ele>3</ele>
        <time>2023-11-05T01:30:23Z</time>
      </trkpt>
      <trkpt lat="47.29025" lon="-2.50743">
        <ele>5</ele>
        <time>2023-11-05T01:38:40Z</time>
      </trkpt>
      <trkpt lat="47.2902" lon="-2.50746">
        <ele>5</ele>
        <time>2023-11-05T01:38:47Z</time>
      </trkpt>
      <trkpt lat="47.28901" lon="-2.50646">
        <ele>3</ele>
        <time>2023-11-05T01:41:50Z</time>
      </trkpt>
      <trkpt lat="47.28807" lon="-2.50598">
        <ele>4</ele>
        <time>2023-11-05T01:44:03Z</time>
        <extensions>
          <visugpx:TrkExtension xmlns:visugpx="https://www.visugpx.com/editgpx/">
            <visugpx:node>1</visugpx:node>
            </visugpx:TrkExtension>
        </extensions>
      </trkpt>
    </trkseg>
  </trk>
</gpx>